Visit the IPS Meteostar Home Page IPSM Dallas Love Field FORECAST

Dallas, Texas

47

75

72

68

72

72

65

65

48
48
45
48
55
48
45

5 miles away at Dallas Love Field 13:53 GMT

Weather:

Clear

Wind:

SE 9 mph

Temperature:

47 ° F

Pressure:

29.97

Dew Point:

34 ° F

Relative Humidity:

60

Feels Like:

43 ° F

Visibility:

10 miles


Aviation Observations:

KDAL 241353Z 14008KT 10SM FEW250 08/01 A2995 RMK AO2 SLP140 T00830011 =

National Weather Service Forecast:
Dallas

dallas- including the city of dallas
445 AM CST FRI NOV 24 2017

TODAY

Sunny. Highs in the mid 70s. South winds 5 to 10 mph.

TONIGHT

Mostly clear. Lows in the upper 40s. South winds 5 to 10 mph.

SATURDAY

Sunny. Highs in the lower 70s. East winds around 5 mph shifting to the northeast in the afternoon.

SATURDAY NIGHT

Mostly clear. Lows in the mid 40s. North winds around 5 mph.

SUNDAY

Sunny. Highs in the upper 60s. East winds around 5 mph shifting to the southeast in the afternoon.

SUNDAY NIGHT

Mostly clear. Lows in the upper 40s.

MONDAY

Sunny. Highs in the lower 70s.

MONDAY NIGHT

Clear. Lows in the mid 50s.

TUESDAY

Sunny. Highs in the lower 70s.

TUESDAY NIGHT

Partly cloudy. Lows in the upper 40s.

WEDNESDAY

Sunny. Highs in the mid 60s.

WEDNESDAY NIGHT

Mostly clear. Lows in the mid 40s.

THURSDAY

Sunny. Highs in the mid 60s.


Visit the IPS Meteostar Home Page